sensor_id;sensor_type;location;lat;lon;timestamp;temperature;humidity
3281;DHT22;1652;51.318;6.202;2022-12-20T00:01:23;11.40;99.90
3281;DHT22;1652;51.318;6.202;2022-12-20T00:03:52;11.50;99.90
3281;DHT22;1652;51.318;6.202;2022-12-20T00:06:20;11.50;99.90
3281;DHT22;1652;51.318;6.202;2022-12-20T00:08:52;11.50;99.90
3281;DHT22;1652;51.318;6.202;2022-12-20T00:11:22;11.50;99.90
3281;DHT22;1652;51.318;6.202;2022-12-20T00:13:49;11.60;99.90
3281;DHT22;1652;51.318;6.202;2022-12-20T00:16:24;11.60;99.90
3281;DHT22;1652;51.318;6.202;2022-12-20T00:18:59;11.60;99.90
3281;DHT22;1652;51.318;6.202;2022-12-20T00:21:28;11.70;99.90
3281;DHT22;1652;51.318;6.202;2022-12-20T00:23:55;11.60;99.90
3281;DHT22;1652;51.318;6.202;2022-12-20T00:26:28;11.60;99.90
3281;DHT22;1652;51.318;6.202;2022-12-20T00:28:56;11.60;99.90
3281;DHT22;1652;51.318;6.202;2022-12-20T00:31:24;11.50;99.90
3281;DHT22;1652;51.318;6.202;2022-12-20T00:33:52;11.60;99.90
3281;DHT22;1652;51.318;6.202;2022-12-20T00:36:21;11.60;99.90
3281;DHT22;1652;51.318;6.202;2022-12-20T00:38:50;11.60;99.90
3281;DHT22;1652;51.318;6.202;2022-12-20T00:41:20;11.60;99.90
3281;DHT22;1652;51.318;6.202;2022-12-20T00:43:47;11.50;99.90
3281;DHT22;1652;51.318;6.202;2022-12-20T00:46:16;11.50;99.90
3281;DHT22;1652;51.318;6.202;2022-12-20T00:48:43;11.60;99.90
3281;DHT22;1652;51.318;6.202;2022-12-20T00:51:12;11.60;99.90
3281;DHT22;1652;51.318;6.202;2022-12-20T00:53:40;11.60;99.90
3281;DHT22;1652;51.318;6.202;2022-12-20T00:56:07;11.60;99.90
3281;DHT22;1652;51.318;6.202;2022-12-20T00:58:37;11.60;99.90
3281;DHT22;1652;51.318;6.202;2022-12-20T01:01:12;11.50;99.90
3281;DHT22;1652;51.318;6.202;2022-12-20T01:03:39;11.60;99.90
3281;DHT22;1652;51.318;6.202;2022-12-20T01:06:06;11.60;99.90
3281;DHT22;1652;51.318;6.202;2022-12-20T01:08:33;11.70;99.90
3281;DHT22;1652;51.318;6.202;2022-12-20T01:11:12;11.60;99.90
3281;DHT22;1652;51.318;6.202;2022-12-20T01:13:42;11.60;99.90
3281;DHT22;1652;51.318;6.202;2022-12-20T01:16:39;11.70;99.90
3281;DHT22;1652;51.318;6.202;2022-12-20T01:19:08;11.70;99.90
3281;DHT22;1652;51.318;6.202;2022-12-20T01:21:36;11.70;99.90
3281;DHT22;1652;51.318;6.202;2022-12-20T01:24:03;11.70;99.90
3281;DHT22;1652;51.318;6.202;2022-12-20T01:26:31;11.70;99.90
3281;DHT22;1652;51.318;6.202;2022-12-20T01:28:59;11.80;99.90
3281;DHT22;1652;51.318;6.202;2022-12-20T01:31:27;11.80;99.90
3281;DHT22;1652;51.318;6.202;2022-12-20T01:33:54;11.80;99.90
3281;DHT22;1652;51.318;6.202;2022-12-20T01:36:23;11.80;99.90
3281;DHT22;1652;51.318;6.202;2022-12-20T01:39:02;11.90;99.90
3281;DHT22;1652;51.318;6.202;2022-12-20T01:41:30;11.80;99.90
3281;DHT22;1652;51.318;6.202;2022-12-20T01:44:03;11.80;99.90
3281;DHT22;1652;51.318;6.202;2022-12-20T01:46:34;11.80;99.90
3281;DHT22;1652;51.318;6.202;2022-12-20T01:49:14;11.70;99.90
3281;DHT22;1652;51.318;6.202;2022-12-20T01:51:52;11.80;99.90
3281;DHT22;1652;51.318;6.202;2022-12-20T01:55:07;11.90;99.90
3281;DHT22;1652;51.318;6.202;2022-12-20T01:57:24;11.80;99.90
3281;DHT22;1652;51.318;6.202;2022-12-20T01:59:53;11.70;99.90
3281;DHT22;1652;51.318;6.202;2022-12-20T02:02:20;11.80;99.90
3281;DHT22;1652;51.318;6.202;2022-12-20T02:04:48;11.80;99.90
3281;DHT22;1652;51.318;6.202;2022-12-20T02:07:19;11.80;99.90
3281;DHT22;1652;51.318;6.202;2022-12-20T02:09:48;11.70;99.90
3281;DHT22;1652;51.318;6.202;2022-12-20T02:12:19;11.80;99.90
3281;DHT22;1652;51.318;6.202;2022-12-20T02:29:32;11.60;99.90
3281;DHT22;1652;51.318;6.202;2022-12-20T02:32:03;11.50;99.90
3281;DHT22;1652;51.318;6.202;2022-12-20T02:34:35;11.40;99.90
3281;DHT22;1652;51.318;6.202;2022-12-20T02:37:03;11.30;99.90
3281;DHT22;1652;51.318;6.202;2022-12-20T02:39:30;11.20;99.90
3281;DHT22;1652;51.318;6.202;2022-12-20T02:42:05;11.10;99.90
3281;DHT22;1652;51.318;6.202;2022-12-20T02:44:36;11.00;99.90
3281;DHT22;1652;51.318;6.202;2022-12-20T02:47:38;11.00;99.90
3281;DHT22;1652;51.318;6.202;2022-12-20T02:50:07;11.00;99.90
3281;DHT22;1652;51.318;6.202;2022-12-20T02:52:35;11.00;99.90
3281;DHT22;1652;51.318;6.202;2022-12-20T02:55:02;10.90;99.90
3281;DHT22;1652;51.318;6.202;2022-12-20T02:57:51;11.00;99.90
3281;DHT22;1652;51.318;6.202;2022-12-20T03:00:29;11.00;99.90
3281;DHT22;1652;51.318;6.202;2022-12-20T03:02:58;11.00;99.90
3281;DHT22;1652;51.318;6.202;2022-12-20T03:05:46;10.90;99.90
3281;DHT22;1652;51.318;6.202;2022-12-20T03:08:13;10.90;99.90
3281;DHT22;1652;51.318;6.202;2022-12-20T03:10:40;10.90;99.90
3281;DHT22;1652;51.318;6.202;2022-12-20T03:13:06;10.90;99.90
3281;DHT22;1652;51.318;6.202;2022-12-20T03:15:33;10.90;99.90
3281;DHT22;1652;51.318;6.202;2022-12-20T03:18:01;11.00;99.90
3281;DHT22;1652;51.318;6.202;2022-12-20T03:20:28;11.00;99.90
3281;DHT22;1652;51.318;6.202;2022-12-20T03:22:55;11.00;99.90
3281;DHT22;1652;51.318;6.202;2022-12-20T03:25:22;11.00;99.90
3281;DHT22;1652;51.318;6.202;2022-12-20T03:27:52;11.00;99.90
3281;DHT22;1652;51.318;6.202;2022-12-20T03:30:19;11.00;99.90
3281;DHT22;1652;51.318;6.202;2022-12-20T03:32:46;10.90;99.90
3281;DHT22;1652;51.318;6.202;2022-12-20T03:35:12;10.80;99.90
3281;DHT22;1652;51.318;6.202;2022-12-20T03:37:39;10.90;99.90
3281;DHT22;1652;51.318;6.202;2022-12-20T03:40:07;10.90;99.90
3281;DHT22;1652;51.318;6.202;2022-12-20T03:42:34;10.90;99.90
3281;DHT22;1652;51.318;6.202;2022-12-20T03:45:02;10.80;99.90
3281;DHT22;1652;51.318;6.202;2022-12-20T03:47:29;10.80;99.90
3281;DHT22;1652;51.318;6.202;2022-12-20T03:49:56;10.80;99.90
3281;DHT22;1652;51.318;6.202;2022-12-20T03:52:23;10.80;99.90
3281;DHT22;1652;51.318;6.202;2022-12-20T03:54:50;10.80;99.90
3281;DHT22;1652;51.318;6.202;2022-12-20T03:57:16;10.70;99.90
3281;DHT22;1652;51.318;6.202;2022-12-20T03:59:43;10.70;99.90
3281;DHT22;1652;51.318;6.202;2022-12-20T04:02:10;10.70;99.90
3281;DHT22;1652;51.318;6.202;2022-12-20T04:04:37;10.70;99.90
3281;DHT22;1652;51.318;6.202;2022-12-20T04:07:04;10.70;99.90
3281;DHT22;1652;51.318;6.202;2022-12-20T04:09:30;10.70;99.90
3281;DHT22;1652;51.318;6.202;2022-12-20T04:11:57;10.60;99.90
3281;DHT22;1652;51.318;6.202;2022-12-20T04:14:24;10.60;99.90
3281;DHT22;1652;51.318;6.202;2022-12-20T04:16:50;10.60;99.90
3281;DHT22;1652;51.318;6.202;2022-12-20T04:19:17;10.60;99.90
3281;DHT22;1652;51.318;6.202;2022-12-20T04:21:44;10.60;99.90
3281;DHT22;1652;51.318;6.202;2022-12-20T04:24:11;10.70;99.90
3281;DHT22;1652;51.318;6.202;2022-12-20T04:26:38;10.70;99.90
3281;DHT22;1652;51.318;6.202;2022-12-20T04:29:04;10.70;99.90
3281;DHT22;1652;51.318;6.202;2022-12-20T04:31:31;10.60;99.90
3281;DHT22;1652;51.318;6.202;2022-12-20T04:33:58;10.70;99.90
3281;DHT22;1652;51.318;6.202;2022-12-20T04:36:25;10.70;99.90
3281;DHT22;1652;51.318;6.202;2022-12-20T04:38:52;10.60;99.90
3281;DHT22;1652;51.318;6.202;2022-12-20T04:41:19;10.50;99.90
3281;DHT22;1652;51.318;6.202;2022-12-20T04:43:50;10.50;99.90
3281;DHT22;1652;51.318;6.202;2022-12-20T04:46:18;10.50;99.90
3281;DHT22;1652;51.318;6.202;2022-12-20T04:48:45;10.40;99.90
3281;DHT22;1652;51.318;6.202;2022-12-20T04:51:24;10.30;99.90
3281;DHT22;1652;51.318;6.202;2022-12-20T04:53:51;10.30;99.90
3281;DHT22;1652;51.318;6.202;2022-12-20T04:56:19;10.30;99.90
3281;DHT22;1652;51.318;6.202;2022-12-20T04:58:49;10.30;99.90
3281;DHT22;1652;51.318;6.202;2022-12-20T05:01:17;10.30;99.90
3281;DHT22;1652;51.318;6.202;2022-12-20T05:03:45;10.20;99.90
3281;DHT22;1652;51.318;6.202;2022-12-20T05:06:13;10.20;99.90
3281;DHT22;1652;51.318;6.202;2022-12-20T05:08:40;10.20;99.90
3281;DHT22;1652;51.318;6.202;2022-12-20T05:11:07;10.10;99.90
3281;DHT22;1652;51.318;6.202;2022-12-20T05:13:34;10.00;99.90
3281;DHT22;1652;51.318;6.202;2022-12-20T05:16:01;10.00;99.90
3281;DHT22;1652;51.318;6.202;2022-12-20T05:18:29;10.00;99.90
3281;DHT22;1652;51.318;6.202;2022-12-20T05:20:57;10.00;99.90
3281;DHT22;1652;51.318;6.202;2022-12-20T05:23:43;10.00;99.90
3281;DHT22;1652;51.318;6.202;2022-12-20T05:26:30;9.90;99.90
3281;DHT22;1652;51.318;6.202;2022-12-20T05:28:57;9.90;99.90
3281;DHT22;1652;51.318;6.202;2022-12-20T05:31:24;10.00;99.90
3281;DHT22;1652;51.318;6.202;2022-12-20T05:33:51;9.90;99.90
3281;DHT22;1652;51.318;6.202;2022-12-20T05:36:17;9.80;99.90
3281;DHT22;1652;51.318;6.202;2022-12-20T05:38:45;9.80;99.90
3281;DHT22;1652;51.318;6.202;2022-12-20T05:41:11;9.80;99.90
3281;DHT22;1652;51.318;6.202;2022-12-20T05:43:38;9.80;99.90
3281;DHT22;1652;51.318;6.202;2022-12-20T05:46:06;9.80;99.90
3281;DHT22;1652;51.318;6.202;2022-12-20T05:48:33;9.90;99.90
3281;DHT22;1652;51.318;6.202;2022-12-20T05:51:00;9.80;99.90
3281;DHT22;1652;51.318;6.202;2022-12-20T05:53:27;9.80;99.90
3281;DHT22;1652;51.318;6.202;2022-12-20T05:55:54;9.70;99.90
3281;DHT22;1652;51.318;6.202;2022-12-20T05:58:21;9.80;99.90
3281;DHT22;1652;51.318;6.202;2022-12-20T06:00:48;9.80;99.90
3281;DHT22;1652;51.318;6.202;2022-12-20T06:03:15;9.90;99.90
3281;DHT22;1652;51.318;6.202;2022-12-20T06:05:43;9.90;99.90
3281;DHT22;1652;51.318;6.202;2022-12-20T06:08:11;9.80;99.90
3281;DHT22;1652;51.318;6.202;2022-12-20T06:10:39;9.80;99.90
3281;DHT22;1652;51.318;6.202;2022-12-20T06:13:07;9.80;99.90
3281;DHT22;1652;51.318;6.202;2022-12-20T06:15:34;9.80;99.90
3281;DHT22;1652;51.318;6.202;2022-12-20T06:18:01;9.90;99.90
3281;DHT22;1652;51.318;6.202;2022-12-20T06:20:28;9.90;99.90
3281;DHT22;1652;51.318;6.202;2022-12-20T06:22:55;9.90;99.90
3281;DHT22;1652;51.318;6.202;2022-12-20T06:25:22;9.90;99.90
3281;DHT22;1652;51.318;6.202;2022-12-20T06:27:48;9.90;99.90
3281;DHT22;1652;51.318;6.202;2022-12-20T06:30:16;9.90;99.90
3281;DHT22;1652;51.318;6.202;2022-12-20T06:32:43;9.80;99.90
3281;DHT22;1652;51.318;6.202;2022-12-20T06:35:10;9.90;99.90
3281;DHT22;1652;51.318;6.202;2022-12-20T06:37:37;9.90;99.90
3281;DHT22;1652;51.318;6.202;2022-12-20T06:40:11;10.00;99.90
3281;DHT22;1652;51.318;6.202;2022-12-20T06:42:38;10.00;99.90
3281;DHT22;1652;51.318;6.202;2022-12-20T06:45:05;10.00;99.90
3281;DHT22;1652;51.318;6.202;2022-12-20T06:47:32;10.00;99.90
3281;DHT22;1652;51.318;6.202;2022-12-20T06:49:59;10.00;99.90
3281;DHT22;1652;51.318;6.202;2022-12-20T06:52:26;10.00;99.90
3281;DHT22;1652;51.318;6.202;2022-12-20T06:54:52;9.90;99.90
3281;DHT22;1652;51.318;6.202;2022-12-20T06:57:20;9.90;99.90
3281;DHT22;1652;51.318;6.202;2022-12-20T06:59:47;9.90;99.90
3281;DHT22;1652;51.318;6.202;2022-12-20T07:02:14;9.90;99.90
3281;DHT22;1652;51.318;6.202;2022-12-20T07:04:41;9.80;99.90
3281;DHT22;1652;51.318;6.202;2022-12-20T07:07:08;9.90;99.90
3281;DHT22;1652;51.318;6.202;2022-12-20T07:09:35;9.80;99.90
3281;DHT22;1652;51.318;6.202;2022-12-20T07:12:03;9.90;99.90
3281;DHT22;1652;51.318;6.202;2022-12-20T07:14:30;10.00;99.90
3281;DHT22;1652;51.318;6.202;2022-12-20T07:16:57;9.90;99.90
3281;DHT22;1652;51.318;6.202;2022-12-20T07:19:24;9.90;99.90
3281;DHT22;1652;51.318;6.202;2022-12-20T07:21:51;10.00;99.90
3281;DHT22;1652;51.318;6.202;2022-12-20T07:24:18;10.10;99.90
3281;DHT22;1652;51.318;6.202;2022-12-20T07:26:45;10.00;99.90
3281;DHT22;1652;51.318;6.202;2022-12-20T07:29:12;10.10;99.90
3281;DHT22;1652;51.318;6.202;2022-12-20T07:31:41;10.10;99.90
3281;DHT22;1652;51.318;6.202;2022-12-20T07:34:09;10.10;99.90
3281;DHT22;1652;51.318;6.202;2022-12-20T07:36:36;10.10;99.90
3281;DHT22;1652;51.318;6.202;2022-12-20T07:39:03;10.20;99.90
3281;DHT22;1652;51.318;6.202;2022-12-20T07:41:30;10.10;99.90
3281;DHT22;1652;51.318;6.202;2022-12-20T07:43:58;10.20;99.90
3281;DHT22;1652;51.318;6.202;2022-12-20T07:46:25;10.10;99.90
3281;DHT22;1652;51.318;6.202;2022-12-20T07:48:52;10.10;99.90
3281;DHT22;1652;51.318;6.202;2022-12-20T07:51:26;10.20;99.90
3281;DHT22;1652;51.318;6.202;2022-12-20T07:56:32;10.30;99.90
3281;DHT22;1652;51.318;6.202;2022-12-20T07:59:07;10.40;99.90
3281;DHT22;1652;51.318;6.202;2022-12-20T08:01:34;10.30;99.90
3281;DHT22;1652;51.318;6.202;2022-12-20T08:04:05;10.40;99.90
3281;DHT22;1652;51.318;6.202;2022-12-20T08:06:36;10.40;99.90
3281;DHT22;1652;51.318;6.202;2022-12-20T08:09:04;10.50;99.90
3281;DHT22;1652;51.318;6.202;2022-12-20T08:11:32;10.60;99.90
3281;DHT22;1652;51.318;6.202;2022-12-20T08:14:00;10.80;99.90
3281;DHT22;1652;51.318;6.202;2022-12-20T08:16:27;10.90;99.90
3281;DHT22;1652;51.318;6.202;2022-12-20T08:18:54;11.10;99.90
3281;DHT22;1652;51.318;6.202;2022-12-20T08:21:21;11.10;99.90
3281;DHT22;1652;51.318;6.202;2022-12-20T08:23:48;11.30;99.90
3281;DHT22;1652;51.318;6.202;2022-12-20T08:26:14;11.30;99.90
3281;DHT22;1652;51.318;6.202;2022-12-20T08:28:41;11.40;99.90
3281;DHT22;1652;51.318;6.202;2022-12-20T08:31:09;11.50;99.90
3281;DHT22;1652;51.318;6.202;2022-12-20T08:33:36;11.50;99.90
3281;DHT22;1652;51.318;6.202;2022-12-20T08:36:07;11.50;99.90
3281;DHT22;1652;51.318;6.202;2022-12-20T08:38:35;11.50;99.90
3281;DHT22;1652;51.318;6.202;2022-12-20T08:41:07;11.50;99.90
3281;DHT22;1652;51.318;6.202;2022-12-20T08:43:38;11.50;99.90
3281;DHT22;1652;51.318;6.202;2022-12-20T08:46:06;11.50;99.90
3281;DHT22;1652;51.318;6.202;2022-12-20T08:48:33;11.50;99.90
3281;DHT22;1652;51.318;6.202;2022-12-20T08:51:06;11.50;99.90
3281;DHT22;1652;51.318;6.202;2022-12-20T08:53:34;11.50;99.90
3281;DHT22;1652;51.318;6.202;2022-12-20T08:56:13;11.50;99.90
3281;DHT22;1652;51.318;6.202;2022-12-20T08:58:41;11.50;99.90
3281;DHT22;1652;51.318;6.202;2022-12-20T09:01:10;11.50;99.90
3281;DHT22;1652;51.318;6.202;2022-12-20T09:03:38;11.50;99.90
3281;DHT22;1652;51.318;6.202;2022-12-20T09:06:08;11.50;99.90
3281;DHT22;1652;51.318;6.202;2022-12-20T09:08:37;11.50;99.90
3281;DHT22;1652;51.318;6.202;2022-12-20T09:11:06;11.50;99.90
3281;DHT22;1652;51.318;6.202;2022-12-20T09:13:34;11.40;99.90
3281;DHT22;1652;51.318;6.202;2022-12-20T09:16:10;11.50;99.90
3281;DHT22;1652;51.318;6.202;2022-12-20T09:18:37;11.50;99.90
3281;DHT22;1652;51.318;6.202;2022-12-20T09:21:05;11.50;99.90
3281;DHT22;1652;51.318;6.202;2022-12-20T09:23:34;11.50;99.90
3281;DHT22;1652;51.318;6.202;2022-12-20T09:26:02;11.60;99.90
3281;DHT22;1652;51.318;6.202;2022-12-20T09:28:30;11.60;99.90
3281;DHT22;1652;51.318;6.202;2022-12-20T09:31:02;11.60;99.90
3281;DHT22;1652;51.318;6.202;2022-12-20T09:33:30;11.50;99.90
3281;DHT22;1652;51.318;6.202;2022-12-20T09:35:58;11.60;99.90
3281;DHT22;1652;51.318;6.202;2022-12-20T09:38:27;11.60;99.90
3281;DHT22;1652;51.318;6.202;2022-12-20T09:40:58;11.60;99.90
3281;DHT22;1652;51.318;6.202;2022-12-20T09:43:27;11.70;99.90
3281;DHT22;1652;51.318;6.202;2022-12-20T09:45:56;11.70;99.90
3281;DHT22;1652;51.318;6.202;2022-12-20T09:48:33;11.80;99.90
3281;DHT22;1652;51.318;6.202;2022-12-20T09:56:43;11.80;99.90
3281;DHT22;1652;51.318;6.202;2022-12-20T09:59:12;11.80;99.90
3281;DHT22;1652;51.318;6.202;2022-12-20T10:01:45;11.70;99.90
3281;DHT22;1652;51.318;6.202;2022-12-20T10:04:30;11.70;99.90
3281;DHT22;1652;51.318;6.202;2022-12-20T10:10:08;11.90;99.90
3281;DHT22;1652;51.318;6.202;2022-12-20T10:15:53;12.10;99.90
3281;DHT22;1652;51.318;6.202;2022-12-20T10:21:12;12.10;99.90
3281;DHT22;1652;51.318;6.202;2022-12-20T10:24:02;12.20;99.90
3281;DHT22;1652;51.318;6.202;2022-12-20T10:26:31;12.30;99.90
3281;DHT22;1652;51.318;6.202;2022-12-20T10:28:58;12.30;99.90
3281;DHT22;1652;51.318;6.202;2022-12-20T10:31:26;12.30;99.90
3281;DHT22;1652;51.318;6.202;2022-12-20T10:33:53;12.30;99.90
3281;DHT22;1652;51.318;6.202;2022-12-20T10:36:25;12.40;99.90
3281;DHT22;1652;51.318;6.202;2022-12-20T10:39:04;12.40;99.90
3281;DHT22;1652;51.318;6.202;2022-12-20T10:44:23;12.40;99.90
3281;DHT22;1652;51.318;6.202;2022-12-20T10:46:54;12.30;99.90
3281;DHT22;1652;51.318;6.202;2022-12-20T10:49:38;12.30;99.90
3281;DHT22;1652;51.318;6.202;2022-12-20T10:54:54;12.30;99.90
3281;DHT22;1652;51.318;6.202;2022-12-20T10:57:26;12.30;99.90
3281;DHT22;1652;51.318;6.202;2022-12-20T10:59:59;12.40;99.90
3281;DHT22;1652;51.318;6.202;2022-12-20T11:02:34;12.50;99.90
3281;DHT22;1652;51.318;6.202;2022-12-20T11:07:55;12.50;99.90
3281;DHT22;1652;51.318;6.202;2022-12-20T11:10:43;12.50;99.90
3281;DHT22;1652;51.318;6.202;2022-12-20T11:13:28;12.50;99.90
3281;DHT22;1652;51.318;6.202;2022-12-20T11:15:56;12.50;99.90
3281;DHT22;1652;51.318;6.202;2022-12-20T11:18:46;12.50;99.90
3281;DHT22;1652;51.318;6.202;2022-12-20T11:21:26;12.60;99.90
3281;DHT22;1652;51.318;6.202;2022-12-20T11:24:09;12.60;99.90
3281;DHT22;1652;51.318;6.202;2022-12-20T11:26:59;12.70;99.90
3281;DHT22;1652;51.318;6.202;2022-12-20T11:32:33;12.70;99.90
3281;DHT22;1652;51.318;6.202;2022-12-20T11:38:03;12.70;99.90
3281;DHT22;1652;51.318;6.202;2022-12-20T11:52:55;12.80;99.90
3281;DHT22;1652;51.318;6.202;2022-12-20T11:55:27;12.90;99.90
3281;DHT22;1652;51.318;6.202;2022-12-20T11:58:18;12.90;99.90
3281;DHT22;1652;51.318;6.202;2022-12-20T12:01:02;13.00;99.90
3281;DHT22;1652;51.318;6.202;2022-12-20T12:03:37;13.00;99.90
3281;DHT22;1652;51.318;6.202;2022-12-20T12:06:24;13.00;99.90
3281;DHT22;1652;51.318;6.202;2022-12-20T12:12:05;12.90;99.90
3281;DHT22;1652;51.318;6.202;2022-12-20T12:15:02;12.80;99.90
3281;DHT22;1652;51.318;6.202;2022-12-20T12:23:23;12.20;99.90
3281;DHT22;1652;51.318;6.202;2022-12-20T12:25:52;12.00;99.90
3281;DHT22;1652;51.318;6.202;2022-12-20T12:28:21;11.80;99.90
3281;DHT22;1652;51.318;6.202;2022-12-20T12:30:57;11.70;99.90
3281;DHT22;1652;51.318;6.202;2022-12-20T12:33:34;11.60;99.90
3281;DHT22;1652;51.318;6.202;2022-12-20T12:42:14;11.50;99.90
3281;DHT22;1652;51.318;6.202;2022-12-20T12:45:02;11.40;99.90
3281;DHT22;1652;51.318;6.202;2022-12-20T12:49:58;11.30;99.90
3281;DHT22;1652;51.318;6.202;2022-12-20T13:11:35;10.90;99.90
3281;DHT22;1652;51.318;6.202;2022-12-20T13:16:40;10.90;99.90
3281;DHT22;1652;51.318;6.202;2022-12-20T13:21:56;10.80;99.90
3281;DHT22;1652;51.318;6.202;2022-12-20T13:24:46;10.80;99.90
3281;DHT22;1652;51.318;6.202;2022-12-20T13:32:54;10.70;99.90
3281;DHT22;1652;51.318;6.202;2022-12-20T13:38:00;10.70;99.90
3281;DHT22;1652;51.318;6.202;2022-12-20T13:40:49;10.70;99.90
3281;DHT22;1652;51.318;6.202;2022-12-20T13:51:04;10.60;99.90
3281;DHT22;1652;51.318;6.202;2022-12-20T13:53:33;10.60;99.90
3281;DHT22;1652;51.318;6.202;2022-12-20T13:58:57;10.70;99.90
3281;DHT22;1652;51.318;6.202;2022-12-20T14:01:25;10.60;99.90
3281;DHT22;1652;51.318;6.202;2022-12-20T14:03:52;10.60;99.90
3281;DHT22;1652;51.318;6.202;2022-12-20T14:06:21;10.60;99.90
3281;DHT22;1652;51.318;6.202;2022-12-20T14:08:53;10.60;99.90
3281;DHT22;1652;51.318;6.202;2022-12-20T14:11:22;10.60;99.90
3281;DHT22;1652;51.318;6.202;2022-12-20T14:13:59;10.50;99.90
3281;DHT22;1652;51.318;6.202;2022-12-20T14:16:29;10.50;99.90
3281;DHT22;1652;51.318;6.202;2022-12-20T14:21:23;10.50;99.90
3281;DHT22;1652;51.318;6.202;2022-12-20T14:23:53;10.50;99.90
3281;DHT22;1652;51.318;6.202;2022-12-20T14:26:26;10.50;99.90
3281;DHT22;1652;51.318;6.202;2022-12-20T14:28:56;10.50;99.90
3281;DHT22;1652;51.318;6.202;2022-12-20T14:36:37;10.50;99.90
3281;DHT22;1652;51.318;6.202;2022-12-20T14:39:27;10.50;99.90
3281;DHT22;1652;51.318;6.202;2022-12-20T14:44:30;10.40;99.90
3281;DHT22;1652;51.318;6.202;2022-12-20T14:47:10;10.40;99.90
3281;DHT22;1652;51.318;6.202;2022-12-20T14:49:38;10.40;99.90
3281;DHT22;1652;51.318;6.202;2022-12-20T14:52:16;10.50;99.90
3281;DHT22;1652;51.318;6.202;2022-12-20T15:02:44;10.40;99.90
3281;DHT22;1652;51.318;6.202;2022-12-20T15:13:37;10.40;99.90
3281;DHT22;1652;51.318;6.202;2022-12-20T15:16:16;10.40;99.90
3281;DHT22;1652;51.318;6.202;2022-12-20T15:18:45;10.40;99.90
3281;DHT22;1652;51.318;6.202;2022-12-20T15:21:12;10.30;99.90
3281;DHT22;1652;51.318;6.202;2022-12-20T15:23:45;10.40;99.90
3281;DHT22;1652;51.318;6.202;2022-12-20T15:26:17;10.30;99.90
3281;DHT22;1652;51.318;6.202;2022-12-20T15:28:44;10.30;99.90
3281;DHT22;1652;51.318;6.202;2022-12-20T15:31:13;10.30;99.90
3281;DHT22;1652;51.318;6.202;2022-12-20T15:33:41;10.30;99.90
3281;DHT22;1652;51.318;6.202;2022-12-20T15:36:20;10.30;99.90
3281;DHT22;1652;51.318;6.202;2022-12-20T15:38:48;10.40;99.90
3281;DHT22;1652;51.318;6.202;2022-12-20T15:41:35;10.30;99.90
3281;DHT22;1652;51.318;6.202;2022-12-20T15:44:05;10.30;99.90
3281;DHT22;1652;51.318;6.202;2022-12-20T15:46:32;10.30;99.90
3281;DHT22;1652;51.318;6.202;2022-12-20T15:48:59;10.30;99.90
3281;DHT22;1652;51.318;6.202;2022-12-20T15:51:34;10.30;99.90
3281;DHT22;1652;51.318;6.202;2022-12-20T15:54:03;10.30;99.90
3281;DHT22;1652;51.318;6.202;2022-12-20T15:56:30;10.30;99.90
3281;DHT22;1652;51.318;6.202;2022-12-20T15:58:57;10.20;99.90
3281;DHT22;1652;51.318;6.202;2022-12-20T16:01:32;10.20;99.90
3281;DHT22;1652;51.318;6.202;2022-12-20T16:04:08;10.20;99.90
3281;DHT22;1652;51.318;6.202;2022-12-20T16:06:39;10.20;99.90
3281;DHT22;1652;51.318;6.202;2022-12-20T16:09:06;10.20;99.90
3281;DHT22;1652;51.318;6.202;2022-12-20T16:11:32;10.30;99.90
3281;DHT22;1652;51.318;6.202;2022-12-20T16:13:59;10.20;99.90
3281;DHT22;1652;51.318;6.202;2022-12-20T16:16:31;10.30;99.90
3281;DHT22;1652;51.318;6.202;2022-12-20T16:18:59;10.30;99.90
3281;DHT22;1652;51.318;6.202;2022-12-20T16:21:30;10.30;99.90
3281;DHT22;1652;51.318;6.202;2022-12-20T16:23:58;10.30;99.90
3281;DHT22;1652;51.318;6.202;2022-12-20T16:26:25;10.30;99.90
3281;DHT22;1652;51.318;6.202;2022-12-20T16:28:53;10.30;99.90
3281;DHT22;1652;51.318;6.202;2022-12-20T16:31:29;10.30;99.90
3281;DHT22;1652;51.318;6.202;2022-12-20T16:33:58;10.30;99.90
3281;DHT22;1652;51.318;6.202;2022-12-20T16:36:25;10.30;99.90
3281;DHT22;1652;51.318;6.202;2022-12-20T16:38:52;10.30;99.90
3281;DHT22;1652;51.318;6.202;2022-12-20T16:41:24;10.30;99.90
3281;DHT22;1652;51.318;6.202;2022-12-20T16:43:54;10.30;99.90
3281;DHT22;1652;51.318;6.202;2022-12-20T16:46:23;10.30;99.90
3281;DHT22;1652;51.318;6.202;2022-12-20T16:48:53;10.20;99.90
3281;DHT22;1652;51.318;6.202;2022-12-20T16:51:25;10.30;99.90
3281;DHT22;1652;51.318;6.202;2022-12-20T16:56:42;10.20;99.90
3281;DHT22;1652;51.318;6.202;2022-12-20T16:59:09;10.20;99.90
3281;DHT22;1652;51.318;6.202;2022-12-20T17:01:50;10.20;99.90
3281;DHT22;1652;51.318;6.202;2022-12-20T17:04:18;10.20;99.90
3281;DHT22;1652;51.318;6.202;2022-12-20T17:06:46;10.20;99.90
3281;DHT22;1652;51.318;6.202;2022-12-20T17:09:13;10.20;99.90
3281;DHT22;1652;51.318;6.202;2022-12-20T17:11:42;10.20;99.90
3281;DHT22;1652;51.318;6.202;2022-12-20T17:14:11;10.20;99.90
3281;DHT22;1652;51.318;6.202;2022-12-20T17:16:39;10.20;99.90
3281;DHT22;1652;51.318;6.202;2022-12-20T17:19:07;10.30;99.90
3281;DHT22;1652;51.318;6.202;2022-12-20T17:21:37;10.30;99.90
3281;DHT22;1652;51.318;6.202;2022-12-20T17:24:20;10.30;99.90
3281;DHT22;1652;51.318;6.202;2022-12-20T17:26:48;10.30;99.90
3281;DHT22;1652;51.318;6.202;2022-12-20T17:29:15;10.20;99.90
3281;DHT22;1652;51.318;6.202;2022-12-20T17:31:45;10.30;99.90
3281;DHT22;1652;51.318;6.202;2022-12-20T17:34:17;10.20;99.90
3281;DHT22;1652;51.318;6.202;2022-12-20T17:36:45;10.20;99.90
3281;DHT22;1652;51.318;6.202;2022-12-20T17:39:12;10.20;99.90
3281;DHT22;1652;51.318;6.202;2022-12-20T17:41:40;10.20;99.90
3281;DHT22;1652;51.318;6.202;2022-12-20T17:46:44;10.20;99.90
3281;DHT22;1652;51.318;6.202;2022-12-20T17:49:11;10.20;99.90
3281;DHT22;1652;51.318;6.202;2022-12-20T17:51:38;10.20;99.90
3281;DHT22;1652;51.318;6.202;2022-12-20T17:54:05;10.30;99.90
3281;DHT22;1652;51.318;6.202;2022-12-20T17:56:34;10.30;99.90
3281;DHT22;1652;51.318;6.202;2022-12-20T17:59:02;10.30;99.90
3281;DHT22;1652;51.318;6.202;2022-12-20T18:01:34;10.30;99.90
3281;DHT22;1652;51.318;6.202;2022-12-20T18:04:04;10.30;99.90
3281;DHT22;1652;51.318;6.202;2022-12-20T18:06:33;10.30;99.90
3281;DHT22;1652;51.318;6.202;2022-12-20T18:09:00;10.30;99.90
3281;DHT22;1652;51.318;6.202;2022-12-20T18:11:27;10.30;99.90
3281;DHT22;1652;51.318;6.202;2022-12-20T18:13:56;10.30;99.90
3281;DHT22;1652;51.318;6.202;2022-12-20T18:16:30;10.20;99.90
3281;DHT22;1652;51.318;6.202;2022-12-20T18:18:57;10.20;99.90
3281;DHT22;1652;51.318;6.202;2022-12-20T18:21:25;10.20;99.90
3281;DHT22;1652;51.318;6.202;2022-12-20T18:23:53;10.20;99.90
3281;DHT22;1652;51.318;6.202;2022-12-20T18:26:24;10.20;99.90
3281;DHT22;1652;51.318;6.202;2022-12-20T18:29:01;10.30;99.90
3281;DHT22;1652;51.318;6.202;2022-12-20T18:31:30;10.30;99.90
3281;DHT22;1652;51.318;6.202;2022-12-20T18:33:58;10.20;99.90
3281;DHT22;1652;51.318;6.202;2022-12-20T18:36:27;10.20;99.90
3281;DHT22;1652;51.318;6.202;2022-12-20T18:38:57;10.20;99.90
3281;DHT22;1652;51.318;6.202;2022-12-20T18:41:26;10.20;99.90
3281;DHT22;1652;51.318;6.202;2022-12-20T18:43:57;10.30;99.90
3281;DHT22;1652;51.318;6.202;2022-12-20T18:46:24;10.30;99.90
3281;DHT22;1652;51.318;6.202;2022-12-20T18:48:53;10.30;99.90
3281;DHT22;1652;51.318;6.202;2022-12-20T18:51:24;10.30;99.90
3281;DHT22;1652;51.318;6.202;2022-12-20T18:53:54;10.30;99.90